Heimkehr — DPMA — position and weather

sailwx.info

Track history (hours):
 
Tides and Currents Weather Stations Pressure Air Temp Water Temp Dewpoint Dewpoint Depression Visibility Wind Speed Wind Dir Waves Ship Positions

Heimkehr

Last reported at 2018-Jul-31 17:13 UTC. Time now 2018-Aug-18 02:44 UTC.
Position N 57°43' E 010°35'.
Warning: this ship's position is 17 days out of date.

Length 18 m.

Type: Pleasure craft. MMSI: 211382270.

Date/timePositionNaut miles runAvg speedWind from/ knotsBaromVisibWave heightAir tempDewpointWater temp
2018-Jul-31 17:13N 57°43' E 010°35'0 0.0
2018-Jul-31 16:49N 57°43' E 010°35'0 0.0
2018-Jul-31 16:10N 57°43' E 010°35'0 0.0
2018-Jul-31 15:58N 57°43' E 010°35'0 0.0
2018-Jul-31 14:31N 57°43' E 010°35'0 0.1
2018-Jul-31 14:28N 57°43' E 010°35'0 0.0
2018-Jul-31 09:13N 57°43' E 010°35'0 0.0
2018-Jul-31 08:13N 57°43' E 010°35'0 0.0
2018-Jul-31 07:55N 57°43' E 010°35'0 0.0
2018-Jul-31 07:28N 57°43' E 010°35'0 0.0
2018-Jul-30 16:34N 57°43' E 010°35'0 0.0
2018-Jul-30 16:22N 57°43' E 010°35'0 0.0
2018-Jul-30 15:58N 57°43' E 010°35'0 0.0
2018-Jul-30 15:28N 57°43' E 010°35'0 0.0
2018-Jul-30 14:58N 57°43' E 010°35'0 0.0
2018-Jul-30 14:04N 57°43' E 010°35'0 0.0
2018-Jul-30 13:46N 57°43' E 010°35'0 0.0
2018-Jul-30 13:04N 57°43' E 010°35'0 0.0
2018-Jul-30 03:13N 57°43' E 010°35'0 0.0
2018-Jul-30 02:34N 57°43' E 010°35'0 0.0
2018-Jul-30 02:25N 57°43' E 010°35'0 0.0
2018-Jul-30 01:04N 57°43' E 010°35'20 3.4
2018-Jul-29 19:07N 58°01' E 010°54'1 5.4
2018-Jul-29 18:56N 58°02' E 010°55'11 4.9
2018-Jul-29 16:38N 58°12' E 011°02'1 4.6
2018-Jul-29 16:27N 58°13' E 011°02'3 4.5
2018-Jul-29 15:53N 58°16' E 011°04'  
2018-Jul-27 11:36N 58°15' E 011°15'1 6.1
2018-Jul-27 11:30N 58°15' E 011°15'3 6.2
2018-Jul-27 10:58N 58°11' E 011°17'4 6.4
2018-Jul-27 10:21N 58°08' E 011°19'3 6.6
2018-Jul-27 09:54N 58°05' E 011°22'3 6.7
2018-Jul-27 09:28N 58°02' E 011°24'3 6.5
2018-Jul-27 09:00N 57°60' E 011°27'3 6.1
2018-Jul-27 08:28N 57°57' E 011°30'3 5.1
2018-Jul-27 07:55N 57°56' E 011°35'1 0.1
2018-Jul-27 03:36N 57°55' E 011°35'0 0.0
2018-Jul-27 03:12N 57°55' E 011°35'0 0.0
2018-Jul-27 02:42N 57°55' E 011°35'0 0.0
2018-Jul-27 02:18N 57°55' E 011°35'0 0.0
2018-Jul-27 01:39N 57°55' E 011°35'0 0.0
2018-Jul-27 01:27N 57°55' E 011°35'0 0.0
2018-Jul-27 01:00N 57°55' E 011°35'0 0.0
2018-Jul-26 23:39N 57°55' E 011°35'0 0.0
2018-Jul-26 21:24N 57°55' E 011°35'0 0.0
2018-Jul-25 10:27N 57°55' E 011°36'2 2.5
2018-Jul-25 09:39N 57°53' E 011°35'0 0.0
2018-Jul-25 09:18N 57°53' E 011°35'0 0.0
2018-Jul-25 08:54N 57°53' E 011°35'0 0.0
2018-Jul-25 08:24N 57°53' E 011°35'0 0.0
2018-Jul-25 07:42N 57°53' E 011°35'0 0.0
2018-Jul-25 07:27N 57°53' E 011°35'0 0.0
2018-Jul-25 07:00N 57°53' E 011°35'0 0.0
2018-Jul-25 06:30N 57°53' E 011°35'0 0.0
2018-Jul-25 05:54N 57°53' E 011°35'0 0.0
2018-Jul-25 05:30N 57°53' E 011°35'0 0.0
2018-Jul-25 04:57N 57°53' E 011°35'0 0.0
2018-Jul-25 04:18N 57°53' E 011°35'0 0.0
2018-Jul-25 04:00N 57°53' E 011°35'0 0.0
2018-Jul-25 03:24N 57°53' E 011°35'0 0.0
2018-Jul-25 02:54N 57°53' E 011°35'0 0.0
2018-Jul-25 02:27N 57°53' E 011°35'0 0.0
2018-Jul-25 02:00N 57°53' E 011°35'0 0.0
2018-Jul-25 01:15N 57°53' E 011°35'0 0.0
2018-Jul-25 01:00N 57°53' E 011°35'0 0.0
2018-Jul-25 00:30N 57°53' E 011°35'0 0.0
2018-Jul-24 23:57N 57°53' E 011°35'0 0.0
2018-Jul-24 23:30N 57°53' E 011°35'0 0.0
2018-Jul-24 23:00N 57°53' E 011°35'0 0.0
2018-Jul-24 22:30N 57°53' E 011°35'0 0.0
2018-Jul-24 21:57N 57°53' E 011°35'0 0.0
2018-Jul-24 21:27N 57°53' E 011°35'0 0.0
2018-Jul-24 20:57N 57°53' E 011°35'0 0.0
2018-Jul-24 20:24N 57°53' E 011°35'0 0.0
2018-Jul-24 20:00N 57°53' E 011°35'0 0.0
2018-Jul-24 19:30N 57°53' E 011°35'0 0.0
2018-Jul-24 18:54N 57°53' E 011°35'0 0.0
2018-Jul-24 18:27N 57°53' E 011°35'0 0.0
2018-Jul-24 17:57N 57°53' E 011°35'0 0.0
2018-Jul-24 17:27N 57°53' E 011°35'0 0.0
2018-Jul-24 16:57N 57°53' E 011°35'0 0.0
2018-Jul-24 16:30N 57°53' E 011°35'0 0.0
2018-Jul-24 16:00N 57°53' E 011°35'0 0.0
2018-Jul-24 15:27N 57°53' E 011°35'0 0.0
2018-Jul-24 14:24N 57°53' E 011°35'0 0.0
2018-Jul-24 14:00N 57°53' E 011°35'0 0.0
2018-Jul-24 13:30N 57°53' E 011°35'0 0.0
2018-Jul-24 12:57N 57°53' E 011°35'0 0.0
2018-Jul-24 12:30N 57°53' E 011°35'0 0.0
2018-Jul-24 12:00N 57°53' E 011°35'0 0.0
2018-Jul-24 11:24N 57°53' E 011°35'0 0.0
2018-Jul-24 10:57N 57°53' E 011°35'0 0.0
2018-Jul-24 10:27N 57°53' E 011°35'0 0.0
2018-Jul-24 10:00N 57°53' E 011°35'0 0.0
2018-Jul-24 09:21N 57°53' E 011°35'0 0.0
2018-Jul-24 09:00N 57°53' E 011°35'0 0.0
2018-Jul-24 08:27N 57°53' E 011°35'0 0.0
2018-Jul-24 08:00N 57°53' E 011°35'0 0.0
2018-Jul-24 07:24N 57°53' E 011°35'0 0.0
2018-Jul-24 06:54N 57°53' E 011°35'0 0.0
2018-Jul-24 06:27N 57°53' E 011°35'0 0.0
2018-Jul-24 05:57N 57°53' E 011°35'0 0.0
2018-Jul-24 05:27N 57°53' E 011°35'0 0.0
2018-Jul-24 04:54N 57°53' E 011°35'0 0.0
2018-Jul-24 04:30N 57°53' E 011°35'0 0.0
2018-Jul-24 03:57N 57°53' E 011°35'0 0.0
2018-Jul-24 03:30N 57°53' E 011°35'0 0.0
2018-Jul-24 02:57N 57°53' E 011°35'0 0.0
2018-Jul-24 02:30N 57°53' E 011°35'0 0.0
2018-Jul-24 02:00N 57°53' E 011°35'0 0.0
2018-Jul-24 01:27N 57°53' E 011°35'0 0.0
2018-Jul-24 00:57N 57°53' E 011°35'0 0.0
2018-Jul-24 00:30N 57°53' E 011°35'0 0.0
2018-Jul-23 23:45N 57°53' E 011°35'0 0.0
2018-Jul-23 23:30N 57°53' E 011°35'0 0.0
2018-Jul-23 22:57N 57°53' E 011°35'0 0.0
2018-Jul-23 22:30N 57°53' E 011°35'0 0.0
2018-Jul-23 21:57N 57°53' E 011°35'0 0.0
2018-Jul-23 21:21N 57°53' E 011°35'0 0.0
2018-Jul-23 21:00N 57°53' E 011°35'0 0.0
2018-Jul-23 20:00N 57°53' E 011°35'0 0.0
2018-Jul-23 19:30N 57°53' E 011°35'0 0.0
2018-Jul-23 18:45N 57°53' E 011°35'0 0.0
2018-Jul-23 18:27N 57°53' E 011°35'0 0.0
2018-Jul-23 17:42N 57°53' E 011°35'0 0.0
2018-Jul-23 17:21N 57°53' E 011°35'0 0.0
2018-Jul-23 17:00N 57°53' E 011°35'0 0.0
2018-Jul-23 16:30N 57°53' E 011°35'0 0.0
2018-Jul-23 15:54N 57°53' E 011°35'0 0.0
2018-Jul-23 15:30N 57°53' E 011°35'0 0.0
2018-Jul-23 15:00N 57°53' E 011°35'0 0.0
2018-Jul-23 14:21N 57°53' E 011°35'0 0.0
2018-Jul-23 14:00N 57°53' E 011°35'0 0.0
2018-Jul-23 13:30N 57°53' E 011°35'0 0.0
2018-Jul-23 13:00N 57°53' E 011°35'0 0.0
2018-Jul-23 12:27N 57°53' E 011°35'0 0.0
2018-Jul-23 11:54N 57°53' E 011°35'0 0.0
2018-Jul-23 11:18N 57°53' E 011°35'0 0.0
2018-Jul-23 11:00N 57°53' E 011°35'0 0.0
2018-Jul-23 10:27N 57°53' E 011°35'0 0.0
2018-Jul-23 09:54N 57°53' E 011°35'0 0.0
2018-Jul-23 09:27N 57°53' E 011°35'0 0.0
2018-Jul-23 08:51N 57°53' E 011°35'0 0.0
2018-Jul-23 08:30N 57°53' E 011°35'0 0.0
2018-Jul-23 07:48N 57°53' E 011°35'0 0.0
2018-Jul-23 07:30N 57°53' E 011°35'0 0.0
2018-Jul-23 06:54N 57°53' E 011°35'0 0.0
2018-Jul-23 06:30N 57°53' E 011°35'0 0.0
2018-Jul-23 05:57N 57°53' E 011°35'0 0.0
2018-Jul-23 05:30N 57°53' E 011°35'0 0.0
2018-Jul-23 04:57N 57°53' E 011°35'0 0.0
2018-Jul-23 04:24N 57°53' E 011°35'0 0.0
2018-Jul-23 03:51N 57°53' E 011°35'0 0.0
2018-Jul-23 03:30N 57°53' E 011°35'0 0.0
2018-Jul-23 02:57N 57°53' E 011°35'0 0.0
2018-Jul-23 02:30N 57°53' E 011°35'0 0.0
2018-Jul-23 02:00N 57°53' E 011°35'0 0.0
2018-Jul-23 01:27N 57°53' E 011°35'0 0.0
2018-Jul-23 00:51N 57°53' E 011°35'0 0.0
2018-Jul-23 00:30N 57°53' E 011°35'0 0.0
2018-Jul-23 00:00N 57°53' E 011°35'0 0.0
2018-Jul-22 23:27N 57°53' E 011°35'0 0.0
2018-Jul-22 22:57N 57°53' E 011°35'0 0.0
2018-Jul-22 22:30N 57°53' E 011°35'0 0.0
2018-Jul-22 21:57N 57°53' E 011°35'0 0.0
2018-Jul-22 21:30N 57°53' E 011°35'0 0.0
2018-Jul-22 20:48N 57°53' E 011°35'0 0.0
2018-Jul-22 20:21N 57°53' E 011°35'0 0.0
2018-Jul-22 19:57N 57°53' E 011°35'0 0.0
2018-Jul-22 19:30N 57°53' E 011°35'0 0.0
2018-Jul-22 18:57N 57°53' E 011°35'0 0.0
2018-Jul-22 18:30N 57°53' E 011°35'0 0.0
2018-Jul-22 18:00N 57°53' E 011°35'0 0.0
2018-Jul-22 17:30N 57°53' E 011°35'0 0.0
2018-Jul-22 16:51N 57°53' E 011°35'0 0.0
2018-Jul-22 16:27N 57°53' E 011°35'0 0.0
2018-Jul-22 15:51N 57°53' E 011°35'0 0.0
2018-Jul-22 14:54N 57°53' E 011°35'0 0.0
2018-Jul-22 14:30N 57°53' E 011°35'0 0.0
2018-Jul-22 13:57N 57°53' E 011°35'0 0.0
2018-Jul-22 13:24N 57°53' E 011°35'0 0.0
2018-Jul-22 12:57N 57°53' E 011°35'0 0.0
2018-Jul-22 12:27N 57°53' E 011°35'0 0.0
2018-Jul-22 11:57N 57°53' E 011°35'0 0.0
2018-Jul-22 11:24N 57°53' E 011°35'0 0.0
2018-Jul-22 10:51N 57°53' E 011°35'0 0.0
2018-Jul-22 10:30N 57°53' E 011°35'0 0.0
2018-Jul-22 09:57N 57°53' E 011°35'0 0.0
2018-Jul-22 09:30N 57°53' E 011°35'0 0.0
2018-Jul-22 09:00N 57°53' E 011°35'0 0.0
2018-Jul-22 08:27N 57°53' E 011°35'0 0.0
2018-Jul-22 08:00N 57°53' E 011°35'0 0.0
2018-Jul-22 07:30N 57°53' E 011°35'0 0.0
2018-Jul-22 06:51N 57°53' E 011°35'0 0.0
2018-Jul-22 06:30N 57°53' E 011°35'0 0.0
2018-Jul-22 05:57N 57°53' E 011°35'0 0.0
2018-Jul-22 05:27N 57°53' E 011°35'0 0.0
2018-Jul-22 05:00N 57°53' E 011°35'0 0.0
2018-Jul-22 04:30N 57°53' E 011°35'0 0.0
2018-Jul-22 04:00N 57°53' E 011°35'0 0.0
2018-Jul-22 03:27N 57°53' E 011°35'0 0.0
2018-Jul-22 02:54N 57°53' E 011°35'0 0.0
2018-Jul-22 02:30N 57°53' E 011°35'0 0.0
2018-Jul-22 02:00N 57°53' E 011°35'0 0.0
2018-Jul-22 01:30N 57°53' E 011°35'0 0.0
2018-Jul-22 01:00N 57°53' E 011°35'0 0.0
2018-Jul-22 00:30N 57°53' E 011°35'0 0.0
2018-Jul-21 23:54N 57°53' E 011°35'0 0.0
2018-Jul-21 23:21N 57°53' E 011°35'0 0.0
2018-Jul-21 22:51N 57°53' E 011°35'0 0.0
2018-Jul-21 22:27N 57°53' E 011°35'0 0.0
2018-Jul-21 22:00N 57°53' E 011°35'0 0.0
2018-Jul-21 21:24N 57°53' E 011°35'0 0.0
2018-Jul-21 21:00N 57°53' E 011°35'0 0.0
2018-Jul-21 20:24N 57°53' E 011°35'0 0.0
2018-Jul-21 20:00N 57°53' E 011°35'0 0.0
2018-Jul-21 19:12N 57°53' E 011°35'0 0.0
2018-Jul-21 18:57N 57°53' E 011°35'0 0.0
2018-Jul-21 18:30N 57°53' E 011°35'0 0.0
2018-Jul-21 18:00N 57°53' E 011°35'0 0.0
2018-Jul-21 17:27N 57°53' E 011°35'  
Track history (hours):
 
Tides and Currents Weather Stations Pressure Air Temp Water Temp Dewpoint Dewpoint Depression Visibility Wind Speed Wind Dir Waves Ship Positions

Heimkehr

Last reported at 2018-Jul-31 17:13 UTC. Time now 2018-Aug-18 02:44 UTC.
Position N 57°43' E 010°35'.
Warning: this ship's position is 17 days out of date.

Length 18 m.

Type: Pleasure craft. MMSI: 211382270.

Date/timePositionNaut miles runAvg speedWind from/ knotsBaromVisibWave heightAir tempDewpointWater temp
2018-Jul-31 17:13N 57°43' E 010°35'0 0.0
2018-Jul-31 16:49N 57°43' E 010°35'0 0.0
2018-Jul-31 16:10N 57°43' E 010°35'0 0.0
2018-Jul-31 15:58N 57°43' E 010°35'0 0.0
2018-Jul-31 14:31N 57°43' E 010°35'0 0.1
2018-Jul-31 14:28N 57°43' E 010°35'0 0.0
2018-Jul-31 09:13N 57°43' E 010°35'0 0.0
2018-Jul-31 08:13N 57°43' E 010°35'0 0.0
2018-Jul-31 07:55N 57°43' E 010°35'0 0.0
2018-Jul-31 07:28N 57°43' E 010°35'0 0.0
2018-Jul-30 16:34N 57°43' E 010°35'0 0.0
2018-Jul-30 16:22N 57°43' E 010°35'0 0.0
2018-Jul-30 15:58N 57°43' E 010°35'0 0.0
2018-Jul-30 15:28N 57°43' E 010°35'0 0.0
2018-Jul-30 14:58N 57°43' E 010°35'0 0.0
2018-Jul-30 14:04N 57°43' E 010°35'0 0.0
2018-Jul-30 13:46N 57°43' E 010°35'0 0.0
2018-Jul-30 13:04N 57°43' E 010°35'0 0.0
2018-Jul-30 03:13N 57°43' E 010°35'0 0.0
2018-Jul-30 02:34N 57°43' E 010°35'0 0.0
2018-Jul-30 02:25N 57°43' E 010°35'0 0.0
2018-Jul-30 01:04N 57°43' E 010°35'20 3.4
2018-Jul-29 19:07N 58°01' E 010°54'1 5.4
2018-Jul-29 18:56N 58°02' E 010°55'11 4.9
2018-Jul-29 16:38N 58°12' E 011°02'1 4.6
2018-Jul-29 16:27N 58°13' E 011°02'3 4.5
2018-Jul-29 15:53N 58°16' E 011°04'  
2018-Jul-27 11:36N 58°15' E 011°15'1 6.1
2018-Jul-27 11:30N 58°15' E 011°15'3 6.2
2018-Jul-27 10:58N 58°11' E 011°17'4 6.4
2018-Jul-27 10:21N 58°08' E 011°19'3 6.6
2018-Jul-27 09:54N 58°05' E 011°22'3 6.7
2018-Jul-27 09:28N 58°02' E 011°24'3 6.5
2018-Jul-27 09:00N 57°60' E 011°27'3 6.1
2018-Jul-27 08:28N 57°57' E 011°30'3 5.1
2018-Jul-27 07:55N 57°56' E 011°35'1 0.1
2018-Jul-27 03:36N 57°55' E 011°35'0 0.0
2018-Jul-27 03:12N 57°55' E 011°35'0 0.0
2018-Jul-27 02:42N 57°55' E 011°35'0 0.0
2018-Jul-27 02:18N 57°55' E 011°35'0 0.0
2018-Jul-27 01:39N 57°55' E 011°35'0 0.0
2018-Jul-27 01:27N 57°55' E 011°35'0 0.0
2018-Jul-27 01:00N 57°55' E 011°35'0 0.0
2018-Jul-26 23:39N 57°55' E 011°35'0 0.0
2018-Jul-26 21:24N 57°55' E 011°35'0 0.0
2018-Jul-25 10:27N 57°55' E 011°36'2 2.5
2018-Jul-25 09:39N 57°53' E 011°35'0 0.0
2018-Jul-25 09:18N 57°53' E 011°35'0 0.0
2018-Jul-25 08:54N 57°53' E 011°35'0 0.0
2018-Jul-25 08:24N 57°53' E 011°35'0 0.0
2018-Jul-25 07:42N 57°53' E 011°35'0 0.0
2018-Jul-25 07:27N 57°53' E 011°35'0 0.0
2018-Jul-25 07:00N 57°53' E 011°35'0 0.0
2018-Jul-25 06:30N 57°53' E 011°35'0 0.0
2018-Jul-25 05:54N 57°53' E 011°35'0 0.0
2018-Jul-25 05:30N 57°53' E 011°35'0 0.0
2018-Jul-25 04:57N 57°53' E 011°35'0 0.0
2018-Jul-25 04:18N 57°53' E 011°35'0 0.0
2018-Jul-25 04:00N 57°53' E 011°35'0 0.0
2018-Jul-25 03:24N 57°53' E 011°35'0 0.0
2018-Jul-25 02:54N 57°53' E 011°35'0 0.0
2018-Jul-25 02:27N 57°53' E 011°35'0 0.0
2018-Jul-25 02:00N 57°53' E 011°35'0 0.0
2018-Jul-25 01:15N 57°53' E 011°35'0 0.0
2018-Jul-25 01:00N 57°53' E 011°35'0 0.0
2018-Jul-25 00:30N 57°53' E 011°35'0 0.0
2018-Jul-24 23:57N 57°53' E 011°35'0 0.0
2018-Jul-24 23:30N 57°53' E 011°35'0 0.0
2018-Jul-24 23:00N 57°53' E 011°35'0 0.0
2018-Jul-24 22:30N 57°53' E 011°35'0 0.0
2018-Jul-24 21:57N 57°53' E 011°35'0 0.0
2018-Jul-24 21:27N 57°53' E 011°35'0 0.0
2018-Jul-24 20:57N 57°53' E 011°35'0 0.0
2018-Jul-24 20:24N 57°53' E 011°35'0 0.0
2018-Jul-24 20:00N 57°53' E 011°35'0 0.0
2018-Jul-24 19:30N 57°53' E 011°35'0 0.0
2018-Jul-24 18:54N 57°53' E 011°35'0 0.0
2018-Jul-24 18:27N 57°53' E 011°35'0 0.0
2018-Jul-24 17:57N 57°53' E 011°35'0 0.0
2018-Jul-24 17:27N 57°53' E 011°35'0 0.0
2018-Jul-24 16:57N 57°53' E 011°35'0 0.0
2018-Jul-24 16:30N 57°53' E 011°35'0 0.0
2018-Jul-24 16:00N 57°53' E 011°35'0 0.0
2018-Jul-24 15:27N 57°53' E 011°35'0 0.0
2018-Jul-24 14:24N 57°53' E 011°35'0 0.0
2018-Jul-24 14:00N 57°53' E 011°35'0 0.0
2018-Jul-24 13:30N 57°53' E 011°35'0 0.0
2018-Jul-24 12:57N 57°53' E 011°35'0 0.0
2018-Jul-24 12:30N 57°53' E 011°35'0 0.0
2018-Jul-24 12:00N 57°53' E 011°35'0 0.0
2018-Jul-24 11:24N 57°53' E 011°35'0 0.0
2018-Jul-24 10:57N 57°53' E 011°35'0 0.0
2018-Jul-24 10:27N 57°53' E 011°35'0 0.0
2018-Jul-24 10:00N 57°53' E 011°35'0 0.0
2018-Jul-24 09:21N 57°53' E 011°35'0 0.0
2018-Jul-24 09:00N 57°53' E 011°35'0 0.0
2018-Jul-24 08:27N 57°53' E 011°35'0 0.0
2018-Jul-24 08:00N 57°53' E 011°35'0 0.0
2018-Jul-24 07:24N 57°53' E 011°35'0 0.0
2018-Jul-24 06:54N 57°53' E 011°35'0 0.0
2018-Jul-24 06:27N 57°53' E 011°35'0 0.0
2018-Jul-24 05:57N 57°53' E 011°35'0 0.0
2018-Jul-24 05:27N 57°53' E 011°35'0 0.0
2018-Jul-24 04:54N 57°53' E 011°35'0 0.0
2018-Jul-24 04:30N 57°53' E 011°35'0 0.0
2018-Jul-24 03:57N 57°53' E 011°35'0 0.0
2018-Jul-24 03:30N 57°53' E 011°35'0 0.0
2018-Jul-24 02:57N 57°53' E 011°35'0 0.0
2018-Jul-24 02:30N 57°53' E 011°35'0 0.0
2018-Jul-24 02:00N 57°53' E 011°35'0 0.0
2018-Jul-24 01:27N 57°53' E 011°35'0 0.0
2018-Jul-24 00:57N 57°53' E 011°35'0 0.0
2018-Jul-24 00:30N 57°53' E 011°35'0 0.0
2018-Jul-23 23:45N 57°53' E 011°35'0 0.0
2018-Jul-23 23:30N 57°53' E 011°35'0 0.0
2018-Jul-23 22:57N 57°53' E 011°35'0 0.0
2018-Jul-23 22:30N 57°53' E 011°35'0 0.0
2018-Jul-23 21:57N 57°53' E 011°35'0 0.0
2018-Jul-23 21:21N 57°53' E 011°35'0 0.0
2018-Jul-23 21:00N 57°53' E 011°35'0 0.0
2018-Jul-23 20:00N 57°53' E 011°35'0 0.0
2018-Jul-23 19:30N 57°53' E 011°35'0 0.0
2018-Jul-23 18:45N 57°53' E 011°35'0 0.0
2018-Jul-23 18:27N 57°53' E 011°35'0 0.0
2018-Jul-23 17:42N 57°53' E 011°35'0 0.0
2018-Jul-23 17:21N 57°53' E 011°35'0 0.0
2018-Jul-23 17:00N 57°53' E 011°35'0 0.0
2018-Jul-23 16:30N 57°53' E 011°35'0 0.0
2018-Jul-23 15:54N 57°53' E 011°35'0 0.0
2018-Jul-23 15:30N 57°53' E 011°35'0 0.0
2018-Jul-23 15:00N 57°53' E 011°35'0 0.0
2018-Jul-23 14:21N 57°53' E 011°35'0 0.0
2018-Jul-23 14:00N 57°53' E 011°35'0 0.0
2018-Jul-23 13:30N 57°53' E 011°35'0 0.0
2018-Jul-23 13:00N 57°53' E 011°35'0 0.0
2018-Jul-23 12:27N 57°53' E 011°35'0 0.0
2018-Jul-23 11:54N 57°53' E 011°35'0 0.0
2018-Jul-23 11:18N 57°53' E 011°35'0 0.0
2018-Jul-23 11:00N 57°53' E 011°35'0 0.0
2018-Jul-23 10:27N 57°53' E 011°35'0 0.0
2018-Jul-23 09:54N 57°53' E 011°35'0 0.0
2018-Jul-23 09:27N 57°53' E 011°35'0 0.0
2018-Jul-23 08:51N 57°53' E 011°35'0 0.0
2018-Jul-23 08:30N 57°53' E 011°35'0 0.0
2018-Jul-23 07:48N 57°53' E 011°35'0 0.0
2018-Jul-23 07:30N 57°53' E 011°35'0 0.0
2018-Jul-23 06:54N 57°53' E 011°35'0 0.0
2018-Jul-23 06:30N 57°53' E 011°35'0 0.0
2018-Jul-23 05:57N 57°53' E 011°35'0 0.0
2018-Jul-23 05:30N 57°53' E 011°35'0 0.0
2018-Jul-23 04:57N 57°53' E 011°35'0 0.0
2018-Jul-23 04:24N 57°53' E 011°35'0 0.0
2018-Jul-23 03:51N 57°53' E 011°35'0 0.0
2018-Jul-23 03:30N 57°53' E 011°35'0 0.0
2018-Jul-23 02:57N 57°53' E 011°35'0 0.0
2018-Jul-23 02:30N 57°53' E 011°35'0 0.0
2018-Jul-23 02:00N 57°53' E 011°35'0 0.0
2018-Jul-23 01:27N 57°53' E 011°35'0 0.0
2018-Jul-23 00:51N 57°53' E 011°35'0 0.0
2018-Jul-23 00:30N 57°53' E 011°35'0 0.0
2018-Jul-23 00:00N 57°53' E 011°35'0 0.0
2018-Jul-22 23:27N 57°53' E 011°35'0 0.0
2018-Jul-22 22:57N 57°53' E 011°35'0 0.0
2018-Jul-22 22:30N 57°53' E 011°35'0 0.0
2018-Jul-22 21:57N 57°53' E 011°35'0 0.0
2018-Jul-22 21:30N 57°53' E 011°35'0 0.0
2018-Jul-22 20:48N 57°53' E 011°35'0 0.0
2018-Jul-22 20:21N 57°53' E 011°35'0 0.0
2018-Jul-22 19:57N 57°53' E 011°35'0 0.0
2018-Jul-22 19:30N 57°53' E 011°35'0 0.0
2018-Jul-22 18:57N 57°53' E 011°35'0 0.0
2018-Jul-22 18:30N 57°53' E 011°35'0 0.0
2018-Jul-22 18:00N 57°53' E 011°35'0 0.0
2018-Jul-22 17:30N 57°53' E 011°35'0 0.0
2018-Jul-22 16:51N 57°53' E 011°35'0 0.0
2018-Jul-22 16:27N 57°53' E 011°35'0 0.0
2018-Jul-22 15:51N 57°53' E 011°35'0 0.0
2018-Jul-22 14:54N 57°53' E 011°35'0 0.0
2018-Jul-22 14:30N 57°53' E 011°35'0 0.0
2018-Jul-22 13:57N 57°53' E 011°35'0 0.0
2018-Jul-22 13:24N 57°53' E 011°35'0 0.0
2018-Jul-22 12:57N 57°53' E 011°35'0 0.0
2018-Jul-22 12:27N 57°53' E 011°35'0 0.0
2018-Jul-22 11:57N 57°53' E 011°35'0 0.0
2018-Jul-22 11:24N 57°53' E 011°35'0 0.0
2018-Jul-22 10:51N 57°53' E 011°35'0 0.0
2018-Jul-22 10:30N 57°53' E 011°35'0 0.0
2018-Jul-22 09:57N 57°53' E 011°35'0 0.0
2018-Jul-22 09:30N 57°53' E 011°35'0 0.0
2018-Jul-22 09:00N 57°53' E 011°35'0 0.0
2018-Jul-22 08:27N 57°53' E 011°35'0 0.0
2018-Jul-22 08:00N 57°53' E 011°35'0 0.0
2018-Jul-22 07:30N 57°53' E 011°35'0 0.0
2018-Jul-22 06:51N 57°53' E 011°35'0 0.0
2018-Jul-22 06:30N 57°53' E 011°35'0 0.0
2018-Jul-22 05:57N 57°53' E 011°35'0 0.0
2018-Jul-22 05:27N 57°53' E 011°35'0 0.0
2018-Jul-22 05:00N 57°53' E 011°35'0 0.0
2018-Jul-22 04:30N 57°53' E 011°35'0 0.0
2018-Jul-22 04:00N 57°53' E 011°35'0 0.0
2018-Jul-22 03:27N 57°53' E 011°35'0 0.0
2018-Jul-22 02:54N 57°53' E 011°35'0 0.0
2018-Jul-22 02:30N 57°53' E 011°35'0 0.0
2018-Jul-22 02:00N 57°53' E 011°35'0 0.0
2018-Jul-22 01:30N 57°53' E 011°35'0 0.0
2018-Jul-22 01:00N 57°53' E 011°35'0 0.0
2018-Jul-22 00:30N 57°53' E 011°35'0 0.0
2018-Jul-21 23:54N 57°53' E 011°35'0 0.0
2018-Jul-21 23:21N 57°53' E 011°35'0 0.0
2018-Jul-21 22:51N 57°53' E 011°35'0 0.0
2018-Jul-21 22:27N 57°53' E 011°35'0 0.0
2018-Jul-21 22:00N 57°53' E 011°35'0 0.0
2018-Jul-21 21:24N 57°53' E 011°35'0 0.0
2018-Jul-21 21:00N 57°53' E 011°35'0 0.0
2018-Jul-21 20:24N 57°53' E 011°35'0 0.0
2018-Jul-21 20:00N 57°53' E 011°35'0 0.0
2018-Jul-21 19:12N 57°53' E 011°35'0 0.0
2018-Jul-21 18:57N 57°53' E 011°35'0 0.0
2018-Jul-21 18:30N 57°53' E 011°35'0 0.0
2018-Jul-21 18:00N 57°53' E 011°35'0 0.0
2018-Jul-21 17:27N 57°53' E 011°35'  

Dump ship's entire track history